Latest Coastal Weather Observations for Wadeye (Port Keats)

IDD60701

Issued at 12:51 am CST Tuesday 24 September 2019 (issued every 10 minutes, with the page automatically refreshed every 10 minutes)

About coastal observations | Map of coastal stations | Coastal observations for NT | Marine services | Other Formats
Station Details ID: 014948 Name: PORT KEATS AIRPORT Lat: -14.25 Lon: 129.53 Height: 28.0 m
Data from the previous 72 hours. | See also: Recent months at Wadeye (Port Keats)
Date/Time
CST
Wind Sea
Height
m
Swell Vis
km
Cloud Weather Temp
°C
Press
hPa
Rain since
9am
mm
Dir  Spd
kts
Gust
kts
Height
m
Period
s
Dir
24/12:30am SSW 3 5 - - - - - - - 24.5 1015.3 0.0
24/12:00am SW 3 4 - - - - - - - 24.6 1015.5 0.0
 
Date/Time
CST
Wind Sea
Height
m
Swell Vis
km
Cloud Weather Temp
°C
Press
hPa
Rain since
9am
mm
Dir  Spd
kts
Gust
kts
Height
m
Period
s
Dir
23/11:30pm SSW 3 5 - - - - - - - 24.9 1015.7 0.0
23/11:00pm SW 2 4 - - - - - - - 25.0 1015.7 0.0
23/10:30pm W 3 4 - - - - - - - 25.6 1015.6 0.0
23/10:00pm WNW 3 4 - - - - - - - 25.9 1015.6 0.0
23/09:30pm NW 4 7 - - - - - - - 26.1 1015.4 0.0
23/09:00pm NW 5 8 - - - - - - - 26.5 1015.1 0.0
23/08:30pm NW 4 5 - - - - - - - 26.3 1014.9 0.0
23/08:00pm WNW 5 8 - - - - - - - 26.5 1014.5 0.0
23/07:30pm WNW 5 6 - - - - - - - 26.7 1014.2 0.0
23/07:00pm NW 5 7 - - - - - - - 27.2 1013.9 0.0
23/06:30pm WNW 6 8 - - - - - - - 27.9 1013.5 0.0
23/06:00pm WNW 7 10 - - - - - - - 29.0 1013.2 0.0
23/05:30pm W 8 12 - - - - - - - 29.6 1013.0 0.0
23/05:00pm W 9 12 - - - - - - - 30.4 1012.9 0.0
23/04:30pm W 9 14 - - - - - - - 30.8 1012.9 0.0
23/04:00pm W 9 13 - - - - - - - 30.9 1012.8 0.0
23/03:30pm W 9 14 - - - - - - - 31.0 1012.9 0.0
23/03:00pm W 9 14 - - - - - - - 31.3 1013.3 0.0
23/02:30pm WSW 9 14 - - - - - - - 31.0 1013.8 0.0
23/02:00pm WSW 10 15 - - - - - - - 30.9 1014.2 0.0
23/01:30pm W 10 15 - - - - - - - 30.2 1014.6 0.0
23/01:00pm W 11 15 - - - - - - - 30.3 1015.1 0.0
23/12:30pm W 8 14 - - - - - - - 29.2 1015.7 0.0
23/12:00pm WSW 9 14 - - - - - - - 28.6 1016.0 0.0
23/11:30am W 6 11 - - - - - - - 29.9 1016.4 0.0
23/11:00am W 8 12 - - - - - - - 28.7 1016.9 0.0
23/10:30am NW 5 9 - - - - - - - 30.1 1017.2 0.0
23/10:00am N 4 6 - - - - - - - 30.4 1017.3 0.0
23/09:30am NW 4 7 - - - - - - - 28.6 1017.5 0.0
23/09:00am W 3 5 - - - - - - - 27.3 1017.7 0.0
23/08:30am WNW 1 4 - - - - - - - 26.8 1017.3 0.0
23/08:00am ESE 3 4 - - - - - - - 26.4 1017.1 0.0
23/07:30am CALM 0 0 - - - - - - - 23.7 1016.7 0.0
23/07:00am SE 3 4 - - - - - - - 24.0 1016.4 0.0
23/06:30am SE 5 5 - - - - - - - 24.0 1015.8 0.0
23/06:00am CALM 0 2 - - - - - - - 23.9 1015.4 0.0
23/05:30am E 2 4 - - - - - - - 23.6 1015.0 0.0
23/05:00am CALM 0 0 - - - - - - - 22.9 1014.6 0.0
23/04:30am CALM 0 0 - - - - - - - 23.1 1014.5 0.0
23/04:00am CALM 0 0 - - - - - - - 23.2 1014.3 0.0
23/03:30am E 3 4 - - - - - - - 23.7 1014.3 0.0
23/03:00am E 4 5 - - - - - - - 23.9 1014.5 0.0
23/02:30am ENE 4 5 - - - - - - - 24.2 1014.5 0.0
23/02:00am NE 3 4 - - - - - - - 24.3 1014.5 0.0
23/01:30am N 3 4 - - - - - - - 24.8 1014.8 0.0
23/01:00am NNE 2 4 - - - - - - - 24.6 1015.2 0.0
23/12:30am CALM 0 0 - - - - - - - 24.5 1015.5 0.0
23/12:00am N 2 4 - - - - - - - 25.2 1015.6 0.0
 
Date/Time
CST
Wind Sea
Height
m
Swell Vis
km
Cloud Weather Temp
°C
Press
hPa
Rain since
9am
mm
Dir  Spd
kts
Gust
kts
Height
m
Period
s
Dir
22/11:30pm NNE 3 4 - - - - - - - 25.0 1015.5 0.0
22/11:00pm NNE 3 4 - - - - - - - 25.4 1015.5 0.0
22/10:30pm CALM 0 0 - - - - - - - 25.6 1015.6 0.0
22/10:00pm CALM 0 0 - - - - - - - 25.4 1015.5 0.0
22/09:30pm WNW 2 4 - - - - - - - 25.7 1015.3 0.0
22/09:00pm WSW 4 7 - - - - - - - 26.0 1015.1 0.0
22/08:30pm W 4 6 - - - - - - - 26.1 1015.0 0.0
22/08:00pm W 5 9 - - - - - - - 26.3 1014.8 0.0
22/07:30pm W 5 7 - - - - - - - 26.7 1014.6 0.0
22/07:00pm WNW 5 7 - - - - - - - 26.9 1014.4 0.0
22/06:30pm WNW 5 8 - - - - - - - 27.2 1014.2 0.0
22/06:00pm WNW 7 10 - - - - - - - 28.0 1013.9 0.0
22/05:30pm W 7 11 - - - - - - - 29.5 1013.5 0.0
22/05:00pm WNW 6 10 - - - - - - - 29.9 1013.2 0.0
22/04:30pm W 8 11 - - - - - - - 30.1 1013.2 0.0
22/04:00pm W 7 11 - - - - - - - 31.1 1013.4 0.0
22/03:30pm W 9 12 - - - - - - - 30.1 1013.5 0.0
22/03:00pm W 8 14 - - - - - - - 30.2 1013.7 0.0
22/02:30pm NW 8 13 - - - - - - - 30.8 1013.9 0.0
22/02:00pm WNW 7 13 - - - - - - - 30.2 1014.4 0.0
22/01:30pm WNW 8 12 - - - - - - - 30.6 1014.9 0.0
22/01:00pm WSW 9 13 - - - - - - - 30.0 1015.6 0.0
22/12:30pm W 7 10 - - - - - - - 29.7 1016.1 0.0
22/12:00pm NW 7 11 - - - - - - - 28.8 1016.7 0.0
22/11:30am NNW 8 13 - - - - - - - 28.5 1017.1 0.0
22/11:00am NNW 7 11 - - - - - - - 29.7 1017.3 0.0
22/10:30am NNW 7 14 - - - - - - - 28.1 1017.4 0.0
22/10:00am N 10 13 - - - - - - - 27.3 1017.5 0.0
22/09:30am NW 5 9 - - - - - - - 27.2 1017.1 0.0
22/09:00am E 3 5 - - - - - - - 25.9 1017.3 0.0
22/08:30am SE 3 5 - - - - - - - 25.2 1016.6 0.0
22/08:00am ENE 3 4 - - - - - - - 24.0 1016.3 0.0
22/07:30am SE 3 5 - - - - - - - 23.7 1016.0 0.0
22/07:00am E 5 6 - - - - - - - 23.3 1015.5 0.0
22/06:30am E 2 5 - - - - - - - 23.1 1015.1 0.0
22/06:00am CALM 0 2 - - - - - - - 23.0 1014.5 0.0
22/05:30am CALM 0 0 - - - - - - - 22.7 1014.0 0.0
22/05:00am CALM 0 0 - - - - - - - 23.6 1013.8 0.0
22/04:30am ENE 3 5 - - - - - - - 23.3 1013.5 0.0
22/04:00am CALM 0 1 - - - - - - - 23.6 1013.1 0.0
22/03:30am CALM 0 2 - - - - - - - 23.6 1012.8 0.0
22/03:00am WSW 3 3 - - - - - - - 23.0 1012.8 0.0
22/02:30am WNW 3 4 - - - - - - - 23.7 1012.9 0.0
22/02:00am W 3 5 - - - - - - - 22.7 1012.9 0.0
22/01:30am CALM 0 0 - - - - - - - 23.1 1013.2 0.0
22/01:00am SW 1 3 - - - - - - - 23.2 1013.4 0.0
22/12:30am WNW 3 4 - - - - - - - 23.4 1013.5 0.0
22/12:00am WSW 1 5 - - - - - - - 22.8 1013.5 0.0
 
Date/Time
CST
Wind Sea
Height
m
Swell Vis
km
Cloud Weather Temp
°C
Press
hPa
Rain since
9am
mm
Dir  Spd
kts
Gust
kts
Height
m
Period
s
Dir
21/11:30pm WSW 1 4 - - - - - - - 23.3 1013.5 0.0
21/11:00pm NNE 2 3 - - - - - - - 24.4 1013.5 0.0
21/10:30pm CALM 0 0 - - - - - - - 25.0 1013.4 0.0
21/10:00pm NNW 2 3 - - - - - - - 24.8 1013.3 0.0
21/09:30pm NW 2 5 - - - - - - - 25.1 1013.3 0.0
21/09:00pm NNW 3 5 - - - - - - - 25.4 1013.2 0.0
21/08:30pm NW 4 5 - - - - - - - 25.8 1013.1 0.0
21/08:00pm WNW 3 6 - - - - - - - 25.8 1013.0 0.0
21/07:30pm NW 5 7 - - - - - - - 26.3 1012.9 0.0
21/07:00pm WNW 5 7 - - - - - - - 26.5 1012.6 0.0
21/06:30pm NW 7 9 - - - - - - - 27.7 1012.4 0.0
21/06:00pm NW 7 11 - - - - - - - 28.5 1012.2 0.0
21/05:30pm NW 9 12 - - - - - - - 29.4 1012.1 0.0
21/05:00pm NW 8 12 - - - - - - - 29.6 1012.1 0.0
21/04:30pm NNW 10 14 - - - - - - - 29.7 1012.1 0.0
21/04:00pm NW 9 13 - - - - - - - 30.4 1012.2 0.0
21/03:30pm NW 9 16 - - - - - - - 31.1 1012.1 0.0
21/03:00pm NW 10 15 - - - - - - - 31.0 1012.5 0.0
21/02:30pm NW 9 14 - - - - - - - 31.3 1012.7 0.0
21/02:00pm NW 10 13 - - - - - - - 30.9 1012.8 0.0
21/01:30pm NNW 13 17 - - - - - - - 32.3 1013.3 0.0
21/01:00pm N 10 14 - - - - - - - 31.5 1013.7 0.0
21/12:30pm N 9 13 - - - - - - - 30.8 1014.1 0.0
21/12:00pm NNE 9 15 - - - - - - - 30.3 1014.7 0.0
21/11:30am NE 6 11 - - - - - - - 30.3 1014.9 0.0
21/11:00am N 6 11 - - - - - - - 29.2 1015.1 0.0
21/10:30am NNE 8 11 - - - - - - - 29.5 1015.3 0.0
21/10:00am N 7 11 - - - - - - - 28.7 1015.3 0.0
21/09:30am NNE 9 11 - - - - - - - 27.7 1015.4 0.0
21/09:00am NE 7 11 - - - - - - - 27.0 1015.0 0.0
21/08:30am W 2 5 - - - - - - - 25.9 1014.1 0.0
21/08:00am CALM 0 0 - - - - - - - 23.9 1013.8 0.0
21/07:30am SE 3 7 - - - - - - - 22.7 1013.7 0.0
21/07:00am SSW 1 3 - - - - - - - 19.6 1013.4 0.0
21/06:30am ESE 3 5 - - - - - - - 21.0 1013.2 0.0
21/06:00am E 3 4 - - - - - - - 20.6 1013.0 0.0
21/05:30am CALM 0 3 - - - - - - - 21.2 1012.5 0.0
21/05:00am ENE 2 4 - - - - - - - 20.6 1012.2 0.0
21/04:30am CALM 0 0 - - - - - - - 20.1 1012.0 0.0
21/04:00am CALM 0 0 - - - - - - - 20.3 1011.9 0.0
21/03:30am CALM 0 0 - - - - - - - 20.5 1011.9 0.0
21/03:00am CALM 0 0 - - - - - - - 20.7 1012.2 0.0
21/02:30am CALM 0 1 - - - - - - - 21.0 1012.5 0.0
21/02:00am SW 2 4 - - - - - - - 21.1 1012.4 0.0
21/01:30am SSW 3 5 - - - - - - - 21.9 1012.4 0.0
21/01:00am SSW 1 6 - - - - - - - 22.2 1012.4 0.0

Other formats

Comma delimited format used in spreadsheet applications
http://www.bom.gov.au/fwo/IDD60701/IDD60701.95111.axf

JavaScript Object Notation format (JSON) in row-major order
http://www.bom.gov.au/fwo/IDD60701/IDD60701.95111.json

Data quality

Most of these data are generated automatically and are frequently updated. Quality checks on data are not normally performed. It is possible for incorrect values to appear. Refer to information at About Latest Weather Observations and please check the disclaimer before using these data.